Time;durP1;ratioP1;P1;durP2;ratioP2;P2;SDS_P1;SDS_P2;PMS_P1;PMS_P2;Temp;Humidity;BMP_temperature;BMP_pressure;BME280_temperature;BME280_humidity;BME280_pressure;Samples;Min_cycle;Max_cycle;Signal;HPM_P1;HPM_P2
2021/03/08 00:02:49;;;;;;;15.05;3.05;;;;;;;1.70;100.00;101941.75;6249562;28;20057;-69
2021/03/08 00:05:50;;;;;;;17.85;3.00;;;;;;;1.93;100.00;101951.31;6249424;28;20056;-67
2021/03/08 00:08:51;;;;;;;18.60;2.70;;;;;;;1.68;100.00;101947.78;6249615;28;20053;-69
2021/03/08 00:11:52;;;;;;;18.77;2.63;;;;;;;1.69;100.00;101936.56;6248829;28;20127;-68
2021/03/08 00:14:53;;;;;;;14.23;2.35;;;;;;;1.71;100.00;101950.38;6249320;28;20049;-69
2021/03/08 00:17:54;;;;;;;21.42;2.97;;;;;;;1.71;100.00;101952.97;6249293;28;20053;-69
2021/03/08 00:20:55;;;;;;;15.43;2.75;;;;;;;1.67;100.00;101953.81;6248312;28;20053;-69
2021/03/08 00:23:56;;;;;;;19.27;3.10;;;;;;;1.52;100.00;101957.25;6249187;28;20061;-69
2021/03/08 00:26:57;;;;;;;14.55;3.22;;;;;;;1.53;100.00;101964.16;6248915;28;20195;-69
2021/03/08 00:29:58;;;;;;;27.50;3.58;;;;;;;1.59;100.00;101960.69;6248182;28;20092;-69
2021/03/08 00:32:59;;;;;;;24.20;5.47;;;;;;;1.67;100.00;101959.88;6248252;28;20049;-69
2021/03/08 00:36:00;;;;;;;26.13;3.58;;;;;;;1.62;100.00;101959.00;6248873;28;20045;-69
2021/03/08 00:39:02;;;;;;;20.75;2.95;;;;;;;1.68;100.00;101958.13;6248942;28;20402;-72
2021/03/08 00:42:05;;;;;;;18.58;2.83;;;;;;;1.61;100.00;101964.19;6248359;28;20056;-72
2021/03/08 00:45:07;;;;;;;29.98;3.10;;;;;;;1.69;100.00;101962.50;6248685;28;20041;-72
2021/03/08 00:48:08;;;;;;;14.63;2.55;;;;;;;1.74;100.00;101955.59;6248781;28;20053;-72
2021/03/08 00:51:09;;;;;;;24.30;2.72;;;;;;;1.58;100.00;101962.44;6247867;28;20080;-72
2021/03/08 00:54:11;;;;;;;21.52;2.40;;;;;;;1.60;100.00;101963.31;6248254;28;20112;-72
2021/03/08 00:57:12;;;;;;;16.30;2.88;;;;;;;1.58;100.00;101958.97;6248461;28;20128;-72
2021/03/08 01:00:16;;;;;;;24.33;3.72;;;;;;;1.62;100.00;101960.72;6248050;28;20049;-72
2021/03/08 01:03:17;;;;;;;21.20;2.22;;;;;;;1.68;100.00;101958.13;6248147;28;20052;-72
2021/03/08 01:06:17;;;;;;;14.63;2.22;;;;;;;1.66;100.00;101949.50;6247945;28;20755;-72
2021/03/08 01:09:18;;;;;;;21.73;2.55;;;;;;;1.66;100.00;101957.28;6248243;28;20057;-72
2021/03/08 01:12:20;;;;;;;17.25;2.58;;;;;;;1.66;100.00;101949.50;6247526;28;20049;-72
2021/03/08 01:15:21;;;;;;;16.67;2.90;;;;;;;1.78;100.00;101947.81;6247925;28;20049;-72
2021/03/08 01:18:22;;;;;;;24.55;2.80;;;;;;;1.78;100.00;101952.16;6247914;28;20049;-72
2021/03/08 01:21:23;;;;;;;15.95;2.60;;;;;;;1.93;100.00;101949.56;6247052;28;20088;-72
2021/03/08 01:24:24;;;;;;;15.90;2.00;;;;;;;1.69;100.00;101942.63;6247901;28;20049;-72
2021/03/08 01:27:25;;;;;;;15.50;2.53;;;;;;;1.64;100.00;101938.28;6247541;28;20095;-72
2021/03/08 01:30:28;;;;;;;14.32;2.45;;;;;;;1.76;100.00;101940.88;6247563;28;20425;-72
2021/03/08 01:33:29;;;;;;;12.00;2.70;;;;;;;1.73;100.00;101939.19;6247229;28;20053;-72
2021/03/08 01:36:30;;;;;;;17.58;3.13;;;;;;;1.62;100.00;101940.00;6247363;28;20106;-72
2021/03/08 01:39:31;;;;;;;19.73;2.95;;;;;;;1.54;100.00;101937.38;6247239;28;20057;-72
2021/03/08 01:42:32;;;;;;;19.67;2.85;;;;;;;1.71;100.00;101937.44;6247230;28;20042;-72
2021/03/08 01:45:33;;;;;;;17.55;3.33;;;;;;;1.58;100.00;101933.06;6247266;28;20053;-72
2021/03/08 01:48:34;;;;;;;25.00;3.35;;;;;;;1.47;100.00;101935.66;6247270;28;20046;-72
2021/03/08 01:51:35;;;;;;;19.88;4.75;;;;;;;1.44;100.00;101936.47;6246606;28;20476;-72
2021/03/08 01:54:36;;;;;;;14.23;3.35;;;;;;;1.46;100.00;101931.34;6246578;28;20514;-72
2021/03/08 01:57:38;;;;;;;18.48;3.65;;;;;;;1.38;100.00;101931.28;6246959;28;20584;-72
2021/03/08 02:00:41;;;;;;;15.02;3.55;;;;;;;1.24;100.00;101932.97;6246687;28;20053;-72
2021/03/08 02:03:41;;;;;;;22.17;3.97;;;;;;;1.38;100.00;101930.44;6246955;28;20049;-73
2021/03/08 02:06:42;;;;;;;25.27;4.40;;;;;;;1.23;100.00;101928.66;6246717;28;20052;-72
2021/03/08 02:09:43;;;;;;;25.38;4.47;;;;;;;1.12;100.00;101932.91;6246770;28;20053;-72
2021/03/08 02:13:17;;;;;;;19.58;3.92;;;;;;;1.05;100.00;101936.34;6246457;28;20080;-72
2021/03/08 02:16:23;;;;;;;19.42;4.03;;;;;;;1.01;100.00;101931.13;6236258;28;20536;-72
2021/03/08 02:19:46;;;;;;;30.15;5.13;;;;;;;0.96;100.00;101930.25;6246595;28;20056;-72
2021/03/08 02:23:09;;;;;;;21.17;4.75;;;;;;;0.93;100.00;101939.72;6246151;28;20057;-72
2021/03/08 02:26:26;;;;;;;16.45;4.55;;;;;;;0.93;100.00;101940.56;6246856;28;20060;-71
2021/03/08 02:29:51;;;;;;;18.05;5.63;;;;;;;0.96;100.00;101937.16;6246500;28;20056;-72
2021/03/08 02:32:55;;;;;;;18.98;4.43;;;;;;;0.93;100.00;101937.13;6246417;28;20049;-71
2021/03/08 02:36:00;;;;;;;26.85;5.70;;;;;;;0.84;100.00;101929.31;6246415;28;20045;-71
2021/03/08 02:39:10;;;;;;;27.30;5.68;;;;;;;0.88;100.00;101929.34;6246616;28;20056;-72
2021/03/08 02:42:18;;;;;;;31.25;5.53;;;;;;;0.82;100.00;101934.50;6246090;28;20065;-71
2021/03/08 02:45:22;;;;;;;26.38;5.47;;;;;;;0.79;100.00;101937.06;6246376;28;20075;-72
2021/03/08 02:48:25;;;;;;;25.83;5.97;;;;;;;0.91;100.00;101931.06;6246165;28;20413;-72
2021/03/08 02:51:30;;;;;;;32.70;6.78;;;;;;;0.77;100.00;101936.16;6246232;28;20045;-72
2021/03/08 02:54:34;;;;;;;28.90;5.43;;;;;;;0.74;100.00;101937.03;6248137;28;20053;-72
2021/03/08 02:57:39;;;;;;;26.08;6.28;;;;;;;0.67;100.00;101939.53;6251187;28;20056;-72
2021/03/08 03:00:41;;;;;;;28.42;5.90;;;;;;;0.66;100.00;101946.44;6250985;28;20056;-72
2021/03/08 03:03:46;;;;;;;25.50;5.35;;;;;;;0.71;100.00;101937.00;6251295;28;20045;-72
2021/03/08 03:06:49;;;;;;;27.88;6.45;;;;;;;0.78;100.00;101950.00;6250917;28;20050;-74
2021/03/08 03:09:51;;;;;;;25.80;5.63;;;;;;;0.61;100.00;101942.97;6279979;22;20588;-72
2021/03/08 03:12:53;;;;;;;33.35;6.78;;;;;;;0.61;100.00;101945.56;6299482;28;20060;-72
2021/03/08 03:15:56;;;;;;;36.72;6.75;;;;;;;0.55;100.00;101945.53;6315439;28;20059;-72
2021/03/08 03:18:58;;;;;;;28.15;6.85;;;;;;;0.45;100.00;101948.88;6320013;28;20048;-72
2021/03/08 03:22:02;;;;;;;17.70;5.82;;;;;;;0.36;100.00;101951.38;6310255;28;20109;-72
2021/03/08 03:25:04;;;;;;;21.83;6.82;;;;;;;0.29;100.00;101952.22;6325427;28;20094;-72
2021/03/08 03:28:06;;;;;;;25.80;6.85;;;;;;;0.25;100.00;101957.34;6325117;28;20071;-72
2021/03/08 03:31:07;;;;;;;35.08;6.50;;;;;;;0.27;100.00;101957.34;6324491;28;20105;-72
2021/03/08 03:34:10;;;;;;;27.40;6.50;;;;;;;0.18;100.00;101965.91;6325088;28;20040;-72
2021/03/08 03:37:14;;;;;;;31.40;6.22;;;;;;;0.13;100.00;101959.81;6322905;28;20480;-72
2021/03/08 03:40:17;;;;;;;25.27;6.88;;;;;;;0.10;100.00;101964.09;6323868;28;20048;-72
2021/03/08 03:43:18;;;;;;;30.30;7.30;;;;;;;0.07;100.00;101961.47;6316634;28;20052;-72
2021/03/08 03:46:19;;;;;;;34.90;7.95;;;;;;;0.11;100.00;101966.69;6316178;28;20056;-72
2021/03/08 03:49:20;;;;;;;21.83;6.43;;;;;;;0.09;100.00;101970.09;6324547;28;20581;-72
2021/03/08 03:52:21;;;;;;;29.70;6.97;;;;;;;0.02;100.00;101973.50;6324441;28;20052;-72
2021/03/08 03:55:25;;;;;;;20.15;5.85;;;;;;;-0.03;100.00;101976.03;6324419;28;20562;-72
2021/03/08 03:58:30;;;;;;;22.50;5.90;;;;;;;-0.06;100.00;101982.03;6321398;28;20177;-72
2021/03/08 04:01:35;;;;;;;26.88;6.85;;;;;;;-0.08;100.00;101981.16;6298947;28;20052;-72
2021/03/08 04:04:43;;;;;;;28.80;6.57;;;;;;;-0.07;100.00;101989.78;6298277;28;20095;-72
2021/03/08 04:07:46;;;;;;;25.48;6.57;;;;;;;-0.13;100.00;101995.75;6314664;28;20068;-72
2021/03/08 04:10:49;;;;;;;28.20;6.75;;;;;;;-0.19;100.00;101995.66;6323864;28;20079;-72
2021/03/08 04:13:50;;;;;;;23.33;6.45;;;;;;;-0.22;100.00;101990.47;6324174;28;20052;-71
2021/03/08 04:16:55;;;;;;;32.63;7.18;;;;;;;-0.27;100.00;101997.31;6324034;28;20059;-71
2021/03/08 04:19:58;;;;;;;19.70;6.80;;;;;;;-0.30;100.00;102002.44;6306635;28;20055;-72
2021/03/08 04:23:04;;;;;;;24.13;6.03;;;;;;;-0.36;100.00;102016.16;6305761;28;20423;-72
2021/03/08 04:26:08;;;;;;;19.17;6.43;;;;;;;-0.41;100.00;102015.22;6323872;28;20048;-72
2021/03/08 04:29:09;;;;;;;20.70;6.78;;;;;;;-0.47;100.00;102006.53;6324004;28;20052;-72
2021/03/08 04:32:12;;;;;;;31.15;7.40;;;;;;;-0.49;100.00;102010.81;6323448;28;20056;-72
2021/03/08 04:35:14;;;;;;;29.92;7.55;;;;;;;-0.57;100.00;102015.88;6323691;28;20044;-72
2021/03/08 04:38:16;;;;;;;27.10;6.95;;;;;;;-0.61;100.00;102024.44;6323465;28;20048;-72
2021/03/08 04:41:17;;;;;;;30.98;8.13;;;;;;;-0.65;100.00;102028.66;6323180;28;20044;-72
2021/03/08 04:44:18;;;;;;;24.48;6.88;;;;;;;-0.67;100.00;102026.94;6322834;28;20044;-72
2021/03/08 04:47:20;;;;;;;22.92;7.03;;;;;;;-0.71;100.00;102033.75;6322055;28;20052;-72
2021/03/08 04:50:22;;;;;;;24.58;6.30;;;;;;;-0.73;100.00;102037.16;6323247;28;20048;-72
2021/03/08 04:53:23;;;;;;;25.60;7.40;;;;;;;-0.77;100.00;102028.53;6322587;28;20059;-72
2021/03/08 04:56:25;;;;;;;20.85;7.50;;;;;;;-0.79;100.00;102040.53;6323135;28;20086;-72
2021/03/08 04:59:25;;;;;;;24.63;8.55;;;;;;;-0.82;100.00;102033.63;6322988;28;20048;-72
2021/03/08 05:02:30;;;;;;;20.10;7.78;;;;;;;-0.83;100.00;102029.28;6322765;28;20048;-72
2021/03/08 05:05:33;;;;;;;27.90;7.82;;;;;;;-0.85;100.00;102032.72;6322842;28;20044;-72
2021/03/08 05:08:35;;;;;;;26.58;7.30;;;;;;;-0.92;100.00;102036.91;6322993;28;20081;-72
2021/03/08 05:11:37;;;;;;;25.67;6.97;;;;;;;-0.93;100.00;102037.75;6320588;28;20052;-72
2021/03/08 05:14:40;;;;;;;18.52;6.55;;;;;;;-0.94;100.00;102048.06;6322958;28;20053;-72
2021/03/08 05:17:44;;;;;;;20.45;6.82;;;;;;;-0.94;100.00;102038.59;6322311;28;20047;-72
2021/03/08 05:20:46;;;;;;;26.38;7.32;;;;;;;-0.96;100.00;102040.28;6322238;28;20393;-72
2021/03/08 05:23:47;;;;;;;25.02;6.75;;;;;;;-0.96;100.00;102037.69;6322516;28;20653;-72
2021/03/08 05:26:48;;;;;;;17.27;6.25;;;;;;;-0.93;100.00;102047.22;6322392;28;20044;-72
2021/03/08 05:29:50;;;;;;;29.30;6.78;;;;;;;-0.97;100.00;102054.03;6322392;28;20052;-72
2021/03/08 05:32:53;;;;;;;26.63;7.22;;;;;;;-1.00;100.00;102058.25;6322030;28;20048;-72
2021/03/08 05:35:56;;;;;;;24.65;7.18;;;;;;;-0.96;100.00;102054.88;6320460;28;20097;-72
2021/03/08 05:38:57;;;;;;;21.50;6.80;;;;;;;-1.00;100.00;102064.28;6322043;28;20060;-72
2021/03/08 05:42:10;;;;;;;23.08;6.88;;;;;;;-1.02;100.00;102069.44;6321978;28;20128;-72
2021/03/08 05:45:19;;;;;;;22.75;6.35;;;;;;;-1.04;100.00;102065.97;6321893;28;20558;-72
2021/03/08 05:48:47;;;;;;;17.95;6.38;;;;;;;-1.03;100.00;102079.75;6321976;28;20503;-72
2021/03/08 05:52:13;;;;;;;20.20;6.83;;;;;;;-1.04;100.00;102088.34;6321404;28;20135;-72
2021/03/08 05:55:35;;;;;;;17.30;6.60;;;;;;;-1.08;100.00;102074.50;6321778;28;20116;-74
2021/03/08 05:59:01;;;;;;;16.45;6.82;;;;;;;-1.09;100.00;102092.53;6321939;28;20051;-71
2021/03/08 06:02:05;;;;;;;17.65;5.97;;;;;;;-1.11;100.00;102099.38;6321333;28;20051;-73
2021/03/08 06:05:55;;;;;;;13.48;6.03;;;;;;;-1.15;100.00;102093.28;6321779;28;20055;-72
2021/03/08 06:09:20;;;;;;;16.80;6.43;;;;;;;-1.17;100.00;102097.56;6321721;28;20071;-73
2021/03/08 06:12:25;;;;;;;19.48;6.20;;;;;;;-1.18;100.00;102101.00;6320995;28;20055;-73
2021/03/08 06:15:29;;;;;;;14.13;6.10;;;;;;;-1.21;100.00;102100.06;6321645;28;20047;-73
2021/03/08 06:18:34;;;;;;;17.75;6.82;;;;;;;-1.25;100.00;102099.16;6321291;28;20059;-73
2021/03/08 06:21:36;;;;;;;22.95;6.65;;;;;;;-1.28;100.00;102107.69;6321163;28;20051;-73
2021/03/08 06:24:40;;;;;;;23.67;8.20;;;;;;;-1.28;100.00;102112.84;6321319;28;20052;-73
2021/03/08 06:27:42;;;;;;;18.92;7.47;;;;;;;-1.26;100.00;102110.31;6320746;28;20044;-73
2021/03/08 06:30:43;;;;;;;23.90;7.75;;;;;;;-1.25;100.00;102119.78;6321050;28;20047;-73
2021/03/08 06:33:44;;;;;;;19.00;6.53;;;;;;;-1.21;100.00;102124.16;6321016;28;20048;-73
2021/03/08 06:36:45;;;;;;;20.27;7.03;;;;;;;-1.22;100.00;102127.59;6306237;28;20052;-73
2021/03/08 06:39:47;;;;;;;21.48;7.90;;;;;;;-1.20;100.00;102132.75;6295902;28;20049;-73
2021/03/08 06:42:52;;;;;;;20.40;7.28;;;;;;;-1.19;100.00;102139.66;6295851;28;20053;-73
2021/03/08 06:45:53;;;;;;;20.00;7.45;;;;;;;-1.18;100.00;102133.63;6295926;28;20044;-73
2021/03/08 06:48:54;;;;;;;23.48;7.25;;;;;;;-1.13;100.00;102132.03;6297674;28;20055;-73
2021/03/08 06:52:04;;;;;;;23.13;8.07;;;;;;;-1.11;100.00;102138.06;6303070;28;20406;-73
2021/03/08 06:55:07;;;;;;;25.50;6.80;;;;;;;-1.06;100.00;102139.00;6300320;28;20048;-74
2021/03/08 06:58:19;;;;;;;26.05;7.53;;;;;;;-1.02;100.00;102146.81;6295801;28;20098;-73
2021/03/08 07:01:30;;;;;;;24.75;7.38;;;;;;;-1.00;100.00;102146.84;6295662;28;20098;-72
2021/03/08 07:04:31;;;;;;;21.58;7.07;;;;;;;-0.95;100.00;102152.09;6295680;28;20051;-74
2021/03/08 07:07:47;;;;;;;22.63;6.85;;;;;;;-0.96;100.00;102151.22;6296893;28;20127;-72
2021/03/08 07:10:49;;;;;;;22.85;6.53;;;;;;;-0.92;100.00;102152.13;6295103;28;20417;-74
2021/03/08 07:13:50;;;;;;;29.10;7.53;;;;;;;-0.87;100.00;102160.81;6295872;28;20052;-72
2021/03/08 07:16:51;;;;;;;18.13;6.43;;;;;;;-0.83;100.00;102160.03;6300589;28;20036;-74
2021/03/08 07:19:53;;;;;;;28.70;7.43;;;;;;;-0.83;100.00;102162.63;6303551;28;20526;-73
2021/03/08 07:22:55;;;;;;;29.58;7.40;;;;;;;-0.79;100.00;102170.44;6320269;28;20051;-74
2021/03/08 07:26:05;;;;;;;21.17;6.50;;;;;;;-0.85;100.00;102172.91;6320428;28;20548;-74
2021/03/08 07:29:07;;;;;;;20.65;6.50;;;;;;;-0.80;100.00;102166.13;6320589;28;20048;-73
2021/03/08 07:32:11;;;;;;;18.92;6.00;;;;;;;-0.75;100.00;102173.06;6320047;28;20048;-73
2021/03/08 07:35:12;;;;;;;17.02;5.40;;;;;;;-0.74;100.00;102172.22;6316260;28;20048;-73
2021/03/08 07:38:15;;;;;;;19.30;5.70;;;;;;;-0.72;100.00;102180.88;6295162;28;20045;-73
2021/03/08 07:41:18;;;;;;;17.50;5.03;;;;;;;-0.67;100.00;102180.09;6299124;28;20059;-74
2021/03/08 07:44:20;;;;;;;21.23;5.70;;;;;;;-0.69;100.00;102170.56;6299544;28;20060;-74
2021/03/08 07:47:21;;;;;;;22.48;5.72;;;;;;;-0.63;100.00;102181.03;6299728;28;20045;-74
2021/03/08 07:50:27;;;;;;;19.75;6.18;;;;;;;-0.63;100.00;102183.59;6307366;28;20051;-72
2021/03/08 07:53:29;;;;;;;17.02;5.28;;;;;;;-0.60;100.00;102179.31;6324440;28;20044;-74
2021/03/08 07:56:32;;;;;;;14.20;4.55;;;;;;;-0.54;100.00;102184.59;6324435;28;20058;-73
2021/03/08 07:59:33;;;;;;;17.88;4.88;;;;;;;-0.55;100.00;102185.44;6319075;28;20048;-73
2021/03/08 08:02:35;;;;;;;15.25;4.88;;;;;;;-0.49;100.00;102182.09;6312014;28;20080;-72
2021/03/08 08:05:36;;;;;;;17.17;5.45;;;;;;;-0.49;100.00;102179.50;6305774;28;20037;-73
2021/03/08 08:08:38;;;;;;;17.42;6.40;;;;;;;-0.43;100.00;102179.59;6315584;28;20055;-71
2021/03/08 08:11:45;;;;;;;20.95;5.85;;;;;;;-0.36;100.00;102175.41;6323677;28;20048;-71
2021/03/08 08:14:46;;;;;;;18.02;5.25;;;;;;;-0.31;100.00;102177.19;6324203;28;20048;-73
2021/03/08 08:17:48;;;;;;;12.35;4.13;;;;;;;-0.24;100.00;102172.13;6323981;28;20044;-73
2021/03/08 08:20:52;;;;;;;25.02;5.00;;;;;;;-0.20;100.00;102173.91;6319030;28;20105;-74
2021/03/08 08:24:00;;;;;;;19.88;4.72;;;;;;;-0.12;100.00;102178.31;6318382;28;20048;-72
2021/03/08 08:27:03;;;;;;;11.38;3.55;;;;;;;0.03;100.00;102171.63;6316397;28;20040;-72
2021/03/08 08:30:06;;;;;;;16.77;5.40;;;;;;;-0.01;100.00;102168.97;6310699;28;20106;-73
2021/03/08 08:33:08;;;;;;;9.30;3.60;;;;;;;0.00;100.00;102175.06;6314023;28;20122;-73
2021/03/08 08:36:14;;;;;;;18.35;3.40;;;;;;;0.04;99.44;102183.69;6302048;28;20040;-75
2021/03/08 08:39:15;;;;;;;13.70;3.38;;;;;;;0.12;98.04;102182.06;6323589;28;20056;-74
2021/03/08 08:42:19;;;;;;;16.95;4.40;;;;;;;0.11;97.46;102181.22;6317068;28;20455;-73
2021/03/08 08:45:27;;;;;;;13.05;4.88;;;;;;;0.12;97.82;102182.94;6298199;28;20056;-73
2021/03/08 08:48:29;;;;;;;11.98;4.25;;;;;;;0.20;97.29;102173.56;6298157;28;20518;-73
2021/03/08 08:51:51;;;;;;;14.18;3.13;;;;;;;0.23;95.85;102177.94;6297271;28;20436;-73
2021/03/08 08:54:53;;;;;;;11.15;4.00;;;;;;;0.27;95.87;102183.97;6314761;28;20056;-73
2021/03/08 08:58:23;;;;;;;15.57;4.43;;;;;;;0.22;97.05;102183.91;6323238;28;20050;-74
2021/03/08 09:01:33;;;;;;;21.00;8.13;;;;;;;0.26;97.23;102172.78;6299131;28;20428;-75
2021/03/08 09:04:34;;;;;;;19.08;7.53;;;;;;;0.40;95.60;102180.69;6298135;28;20090;-73
2021/03/08 09:07:35;;;;;;;10.75;2.60;;;;;;;0.51;93.89;102173.94;6298692;28;20131;-73
2021/03/08 09:10:37;;;;;;;10.10;2.88;;;;;;;0.50;93.45;102177.38;6303978;22;20056;-69
2021/03/08 09:13:38;;;;;;;9.82;2.38;;;;;;;0.48;94.61;102171.31;6245802;28;20119;-68
2021/03/08 09:16:42;;;;;;;13.57;3.17;;;;;;;0.51;93.01;102171.34;6226515;28;20045;-68
2021/03/08 09:19:45;;;;;;;11.18;2.80;;;;;;;0.50;93.60;102175.66;6233993;28;20056;-67
2021/03/08 09:22:49;;;;;;;14.75;2.20;;;;;;;0.64;92.51;102174.94;6222934;28;20046;-68
2021/03/08 09:25:57;;;;;;;7.38;3.05;;;;;;;0.57;89.88;102181.75;6223111;28;20446;-67
2021/03/08 09:28:59;;;;;;;11.25;3.72;;;;;;;0.58;90.38;102182.63;6222753;28;20465;-68
2021/03/08 09:32:00;;;;;;;9.10;2.20;;;;;;;0.70;87.64;102183.63;6222897;28;20050;-67
2021/03/08 09:35:01;;;;;;;7.22;2.00;;;;;;;1.05;85.05;102183.09;6222817;28;20050;-67
2021/03/08 09:38:05;;;;;;;10.45;2.58;;;;;;;0.91;85.43;102182.97;6222726;28;20046;-67
2021/03/08 09:41:06;;;;;;;21.00;3.65;;;;;;;0.88;87.24;102184.66;6221667;28;20574;-67
2021/03/08 09:44:08;;;;;;;13.38;3.00;;;;;;;1.02;87.35;102183.94;6214552;28;20085;-68
2021/03/08 09:47:09;;;;;;;9.15;2.10;;;;;;;1.30;86.18;102186.75;6222659;28;20461;-68
2021/03/08 09:50:16;;;;;;;5.93;2.30;;;;;;;1.28;87.04;102180.72;6222731;28;20104;-68
2021/03/08 09:53:17;;;;;;;7.43;1.90;;;;;;;1.45;79.36;102184.31;6222356;28;20050;-68
2021/03/08 09:56:20;;;;;;;6.75;2.35;;;;;;;1.37;78.89;102180.78;6214298;28;20050;-68
2021/03/08 09:59:22;;;;;;;5.25;2.10;;;;;;;1.57;79.99;102190.41;6222453;28;20076;-68
2021/03/08 10:02:23;;;;;;;8.57;1.88;;;;;;;1.60;80.20;102187.84;6220551;28;20054;-68
2021/03/08 10:05:37;;;;;;;10.95;2.03;;;;;;;1.56;80.58;102189.56;6221463;28;20111;-68
2021/03/08 10:08:38;;;;;;;10.07;2.40;;;;;;;1.65;79.06;102192.22;6208988;28;20054;-69
2021/03/08 10:11:39;;;;;;;10.60;1.58;;;;;;;1.69;79.75;102188.78;6221090;28;20049;-68
2021/03/08 10:14:41;;;;;;;6.30;1.98;;;;;;;1.81;80.20;102192.28;6221295;28;20081;-68
2021/03/08 10:17:58;;;;;;;5.63;2.17;;;;;;;2.02;78.00;102195.88;6220391;28;20068;-69
2021/03/08 10:21:00;;;;;;;11.40;1.70;;;;;;;1.95;72.39;102188.94;6220919;28;20089;-69
2021/03/08 10:24:01;;;;;;;9.18;1.92;;;;;;;2.02;74.08;102185.50;6221838;28;20054;-68
2021/03/08 10:27:09;;;;;;;6.20;1.63;;;;;;;2.25;77.51;102180.44;6221775;28;20059;-68
2021/03/08 10:30:14;;;;;;;2.05;1.00;;;;;;;2.59;67.19;102182.25;6221821;28;20133;-69
2021/03/08 10:33:18;;;;;;;4.57;1.08;;;;;;;2.57;64.19;102174.47;6220579;28;20075;-68
2021/03/08 10:36:21;;;;;;;3.88;0.88;;;;;;;2.58;64.17;102165.81;6221368;28;20041;-68
2021/03/08 10:39:23;;;;;;;2.90;0.93;;;;;;;2.71;55.88;102170.19;6221368;28;20050;-69
2021/03/08 10:42:24;;;;;;;4.28;0.90;;;;;;;2.94;58.53;102169.34;6221184;28;20560;-68
2021/03/08 10:45:26;;;;;;;2.72;0.77;;;;;;;3.14;60.10;102171.97;6221501;28;20050;-68
2021/03/08 10:48:28;;;;;;;3.45;0.82;;;;;;;3.14;58.89;102172.84;6221656;28;20050;-69
2021/03/08 10:51:29;;;;;;;2.85;0.90;;;;;;;3.19;59.43;102176.31;6220604;28;20054;-68
2021/03/08 10:54:38;;;;;;;3.13;0.90;;;;;;;3.30;59.25;102168.50;6221797;28;20054;-69
2021/03/08 10:57:50;;;;;;;2.10;1.05;;;;;;;3.30;59.41;102169.38;6221207;28;20137;-69
2021/03/08 11:01:06;;;;;;;3.28;1.02;;;;;;;3.46;54.85;102162.44;6220778;28;20054;-69
2021/03/08 11:04:23;;;;;;;2.28;0.82;;;;;;;3.53;53.08;102161.53;6221379;28;20054;-68
2021/03/08 11:07:32;;;;;;;3.28;0.90;;;;;;;3.69;55.94;102157.19;6221155;28;20505;-68
2021/03/08 11:10:37;;;;;;;2.13;0.90;;;;;;;4.10;49.90;102150.16;6220948;28;20050;-68
2021/03/08 11:13:38;;;;;;;2.70;0.57;;;;;;;4.17;53.00;102150.09;6220836;28;20054;-68
2021/03/08 11:16:49;;;;;;;4.45;0.80;;;;;;;4.43;53.19;102147.38;6225762;28;20129;-69
2021/03/08 11:20:05;;;;;;;2.65;0.88;;;;;;;4.63;48.36;102141.19;6225755;28;20046;-69
2021/03/08 11:23:08;;;;;;;1.10;0.50;;;;;;;4.73;50.69;102146.34;6224863;28;20494;-69
2021/03/08 11:26:09;;;;;;;5.63;0.88;;;;;;;4.91;49.62;102149.69;6225953;28;20052;-69
2021/03/08 11:29:23;;;;;;;2.10;0.93;;;;;;;5.07;50.42;102143.47;6225101;28;20050;-69
2021/03/08 11:32:27;;;;;;;3.42;0.77;;;;;;;5.09;48.79;102140.00;6224976;28;20045;-68
2021/03/08 11:35:30;;;;;;;3.63;0.93;;;;;;;5.18;48.33;102143.38;6225213;28;20438;-68
2021/03/08 11:38:31;;;;;;;1.52;1.23;;;;;;;5.48;48.61;102142.25;6225166;28;20673;-68
2021/03/08 11:41:34;;;;;;;5.40;1.35;;;;;;;5.66;50.24;102141.19;6210757;28;20084;-69
2021/03/08 11:44:35;;;;;;;5.55;1.00;;;;;;;5.92;49.84;102136.59;6201200;28;20055;-69
2021/03/08 11:47:36;;;;;;;5.55;0.90;;;;;;;5.91;49.33;102137.44;6201053;28;20112;-69
2021/03/08 11:50:38;;;;;;;2.13;0.70;;;;;;;6.08;46.38;102129.41;6200859;28;20062;-69
2021/03/08 11:53:39;;;;;;;4.95;1.00;;;;;;;6.18;46.02;102131.06;6200782;28;20054;-69
2021/03/08 11:56:39;;;;;;;3.88;1.23;;;;;;;6.35;43.88;102125.59;6201154;28;20042;-68
2021/03/08 11:59:40;;;;;;;7.40;1.08;;;;;;;6.69;44.60;102127.75;6200842;28;20046;-70
2021/03/08 12:02:42;;;;;;;6.30;1.10;;;;;;;6.69;46.82;102128.59;6200526;28;20081;-68
2021/03/08 12:05:43;;;;;;;3.63;0.70;;;;;;;6.64;45.07;102127.81;6208544;28;20041;-69
2021/03/08 12:08:44;;;;;;;7.50;1.05;;;;;;;6.76;45.64;102127.59;6224724;28;20414;-69
2021/03/08 12:11:45;;;;;;;2.28;0.90;;;;;;;6.87;46.22;102124.84;6217525;28;20050;-69
2021/03/08 12:14:46;;;;;;;6.28;1.42;;;;;;;7.02;44.92;102121.09;6200229;28;20054;-69
2021/03/08 12:17:47;;;;;;;4.50;1.30;;;;;;;7.05;45.29;102124.53;6210779;28;20045;-70
2021/03/08 12:20:48;;;;;;;4.35;1.00;;;;;;;7.17;45.93;102113.00;6207784;28;20088;-69
2021/03/08 12:23:49;;;;;;;3.63;1.10;;;;;;;7.21;48.01;102109.44;6200357;28;20463;-69
2021/03/08 12:26:50;;;;;;;3.42;1.23;;;;;;;7.33;46.71;102101.41;6199264;28;20082;-69
2021/03/08 12:29:51;;;;;;;3.28;0.95;;;;;;;7.29;43.85;102104.09;6223004;28;20050;-70
2021/03/08 12:32:52;;;;;;;3.78;1.08;;;;;;;7.40;45.48;102091.66;6224344;28;20054;-70
2021/03/08 12:35:53;;;;;;;3.20;1.00;;;;;;;7.79;43.49;102081.34;6224199;28;20064;-69
2021/03/08 12:38:54;;;;;;;3.97;1.00;;;;;;;7.74;43.70;102085.81;6224206;28;20085;-69
2021/03/08 12:41:55;;;;;;;6.05;1.50;;;;;;;7.87;45.23;102085.53;6223885;28;20549;-69
2021/03/08 12:44:56;;;;;;;8.25;2.38;;;;;;;8.14;45.56;102084.09;6224100;28;20410;-70
2021/03/08 12:47:58;;;;;;;7.90;1.75;;;;;;;8.13;47.08;102087.59;6224114;28;20049;-69
2021/03/08 12:50:58;;;;;;;4.03;1.50;;;;;;;8.00;41.38;102075.66;6223853;28;20054;-69
2021/03/08 12:53:59;;;;;;;3.33;1.27;;;;;;;8.09;43.73;102078.09;6224024;28;20053;-69
2021/03/08 12:57:00;;;;;;;1.38;0.68;;;;;;;8.03;39.35;102085.19;6223606;28;20046;-70
2021/03/08 13:00:02;;;;;;;4.13;1.17;;;;;;;7.96;42.00;102076.63;6223673;28;20045;-70
2021/03/08 13:03:04;;;;;;;4.78;1.00;;;;;;;7.80;38.15;102069.97;6223432;28;20449;-69
2021/03/08 13:06:05;;;;;;;5.32;1.00;;;;;;;8.05;40.54;102073.81;6223713;28;20487;-70
2021/03/08 13:09:06;;;;;;;5.32;1.20;;;;;;;8.18;40.70;102074.41;6223295;28;20049;-69
2021/03/08 13:12:08;;;;;;;5.55;1.00;;;;;;;7.99;38.23;102066.06;6223274;28;20045;-78
2021/03/08 13:15:11;;;;;;;3.80;0.95;;;;;;;8.69;39.21;102061.03;6223613;28;20058;-76
2021/03/08 13:18:12;;;;;;;3.85;0.98;;;;;;;8.68;42.13;102050.59;6223632;28;20046;-77
2021/03/08 13:21:13;;;;;;;3.80;1.40;;;;;;;8.68;39.90;102047.97;6223058;28;20057;-71
2021/03/08 13:24:14;;;;;;;6.10;1.25;;;;;;;8.70;38.81;102051.41;6223178;28;20426;-71
2021/03/08 13:27:15;;;;;;;2.67;0.93;;;;;;;8.62;38.18;102046.34;6223163;28;20049;-71
2021/03/08 13:30:16;;;;;;;4.53;1.23;;;;;;;9.04;40.76;102044.41;6223120;28;20545;-71
2021/03/08 13:33:18;;;;;;;5.07;1.10;;;;;;;9.14;38.44;102043.25;6222910;28;20050;-71
2021/03/08 13:36:19;;;;;;;2.72;0.90;;;;;;;9.43;37.21;102036.34;6222645;28;20042;-71
2021/03/08 13:39:20;;;;;;;4.18;0.82;;;;;;;9.22;39.43;102039.56;6222918;28;20129;-71
2021/03/08 13:42:21;;;;;;;2.42;0.98;;;;;;;9.45;37.04;102033.69;6222572;28;20060;-71
2021/03/08 13:45:22;;;;;;;3.63;0.90;;;;;;;9.61;36.06;102040.22;6222854;28;20136;-71
2021/03/08 13:48:23;;;;;;;5.05;1.13;;;;;;;9.60;36.97;102030.66;6222783;28;20041;-71
2021/03/08 13:51:24;;;;;;;4.40;1.35;;;;;;;9.48;37.35;102025.72;6222603;28;20046;-72
2021/03/08 13:54:25;;;;;;;1.65;0.70;;;;;;;9.60;36.96;102033.28;6222597;28;20136;-72
2021/03/08 13:57:26;;;;;;;4.43;0.88;;;;;;;9.60;36.40;102033.28;6222811;28;20080;-71
2021/03/08 14:00:27;;;;;;;7.68;1.80;;;;;;;9.51;36.48;102030.91;6222234;28;20426;-72
2021/03/08 14:03:29;;;;;;;6.18;1.33;;;;;;;9.35;35.94;102028.69;6222322;28;20499;-71
2021/03/08 14:06:29;;;;;;;2.65;0.85;;;;;;;9.13;32.51;102027.59;6222226;28;20423;-71
2021/03/08 14:09:30;;;;;;;2.28;1.05;;;;;;;9.55;37.65;102027.28;6222271;28;20149;-71